Time;durP1;ratioP1;P1;durP2;ratioP2;P2;SDS_P1;SDS_P2;PMS_P1;PMS_P2;Temp;Humidity;BMP_temperature;BMP_pressure;BME280_temperature;BME280_humidity;BME280_pressure;Samples;Min_cycle;Max_cycle;Signal;HPM_P1;HPM_P2
2022/11/12 00:00:48;;;;;;;5.23;4.73;;;;;;;;;;4968046;28;20237;-61
2022/11/12 00:03:16;;;;;;;4.17;3.87;;;;;;;;;;4992206;28;20215;-62
2022/11/12 00:05:44;;;;;;;5.00;4.60;;;;;;;;;;4978366;28;20519;-63
2022/11/12 00:08:11;;;;;;;5.33;4.47;;;;;;;;;;4974789;28;20243;-62
2022/11/12 00:10:39;;;;;;;5.70;4.60;;;;;;;;;;4964337;28;20335;-63
2022/11/12 00:13:06;;;;;;;5.63;4.63;;;;;;;;;;4963552;28;20290;-63
2022/11/12 00:15:33;;;;;;;5.13;4.70;;;;;;;;;;4980728;28;20319;-63
2022/11/12 00:18:01;;;;;;;4.93;4.53;;;;;;;;;;4967614;28;20274;-63
2022/11/12 00:20:28;;;;;;;4.93;4.47;;;;;;;;;;4965109;28;20227;-62
2022/11/12 00:22:55;;;;;;;4.27;3.93;;;;;;;;;;4974193;28;20222;-62
2022/11/12 00:25:23;;;;;;;4.57;4.07;;;;;;;;;;4982476;28;20230;-63
2022/11/12 00:27:50;;;;;;;4.20;3.90;;;;;;;;;;4985168;28;20227;-62
2022/11/12 00:30:18;;;;;;;4.40;4.03;;;;;;;;;;4988602;28;20318;-62
2022/11/12 00:32:45;;;;;;;4.30;3.90;;;;;;;;;;4991086;28;20242;-61
2022/11/12 00:35:13;;;;;;;4.33;3.97;;;;;;;;;;4977385;28;21796;-62
2022/11/12 00:37:40;;;;;;;4.10;3.80;;;;;;;;;;4970917;28;20215;-63
2022/11/12 00:40:08;;;;;;;4.60;4.20;;;;;;;;;;4992510;28;20302;-62
2022/11/12 00:42:35;;;;;;;4.63;4.23;;;;;;;;;;5001729;28;20592;-63
2022/11/12 00:45:03;;;;;;;4.93;4.43;;;;;;;;;;4985406;28;20305;-63
2022/11/12 00:47:30;;;;;;;4.63;4.23;;;;;;;;;;4984999;28;20299;-63
2022/11/12 00:49:57;;;;;;;6.43;4.70;;;;;;;;;;4950293;28;21774;-62
2022/11/12 00:52:25;;;;;;;5.60;4.40;;;;;;;;;;4962647;28;20336;-63
2022/11/12 00:54:52;;;;;;;5.17;4.60;;;;;;;;;;4962413;28;20203;-63
2022/11/12 00:57:19;;;;;;;4.77;4.27;;;;;;;;;;4970596;28;20230;-62
2022/11/12 00:59:47;;;;;;;5.43;4.53;;;;;;;;;;4959955;28;20265;-61
2022/11/12 01:02:14;;;;;;;5.23;4.50;;;;;;;;;;4969304;28;20239;-63
2022/11/12 01:04:42;;;;;;;5.73;5.17;;;;;;;;;;4964275;28;20216;-61
2022/11/12 01:07:09;;;;;;;5.57;5.07;;;;;;;;;;4968546;28;20211;-63
2022/11/12 01:09:36;;;;;;;5.70;4.93;;;;;;;;;;4962058;28;20869;-61
2022/11/12 01:12:04;;;;;;;5.10;4.60;;;;;;;;;;4964258;28;20638;-61
2022/11/12 01:14:31;;;;;;;5.00;4.60;;;;;;;;;;4982907;28;20214;-63
2022/11/12 01:16:58;;;;;;;4.83;4.43;;;;;;;;;;4986366;28;20222;-63
2022/11/12 01:19:26;;;;;;;5.70;5.00;;;;;;;;;;4963277;28;20983;-61
2022/11/12 01:21:53;;;;;;;5.27;4.40;;;;;;;;;;4971953;28;20285;-63
2022/11/12 01:24:20;;;;;;;5.20;4.70;;;;;;;;;;4987442;28;20241;-63
2022/11/12 01:26:48;;;;;;;4.80;4.37;;;;;;;;;;4996008;28;20731;-62
2022/11/12 01:29:15;;;;;;;5.80;4.93;;;;;;;;;;4968603;28;20306;-62
2022/11/12 01:31:42;;;;;;;4.70;4.17;;;;;;;;;;4963150;28;20230;-63
2022/11/12 01:34:10;;;;;;;4.90;4.50;;;;;;;;;;4968164;28;20290;-64
2022/11/12 01:36:38;;;;;;;4.93;4.43;;;;;;;;;;4967079;28;20302;-63
2022/11/12 01:39:07;;;;;;;5.30;4.80;;;;;;;;;;4968663;28;20207;-63
2022/11/12 01:41:36;;;;;;;8.00;5.60;;;;;;;;;;4966227;28;20242;-63
2022/11/12 01:44:14;;;;;;;8.77;6.30;;;;;;;;;;4968833;28;20579;-62
2022/11/12 01:46:48;;;;;;;7.67;5.33;;;;;;;;;;4965823;28;20840;-62
2022/11/12 01:49:19;;;;;;;6.80;5.73;;;;;;;;;;4968449;28;20246;-63
2022/11/12 01:51:48;;;;;;;7.17;6.43;;;;;;;;;;4966842;28;20231;-63
2022/11/12 01:54:17;;;;;;;7.73;5.90;;;;;;;;;;4965414;28;20235;-61
2022/11/12 01:56:45;;;;;;;6.83;6.00;;;;;;;;;;4962896;28;20295;-62
2022/11/12 01:59:19;;;;;;;6.83;6.03;;;;;;;;;;4966110;28;20226;-63
2022/11/12 02:01:46;;;;;;;5.93;5.33;;;;;;;;;;4962319;28;20373;-63
2022/11/12 02:04:14;;;;;;;7.10;5.40;;;;;;;;;;4965312;28;20208;-61
2022/11/12 02:06:42;;;;;;;6.07;5.47;;;;;;;;;;4980813;28;20294;-61
2022/11/12 02:09:10;;;;;;;5.47;4.97;;;;;;;;;;4955228;28;20227;-62
2022/11/12 02:11:37;;;;;;;5.60;5.00;;;;;;;;;;4966031;28;20230;-62
2022/11/12 02:14:04;;;;;;;5.93;5.33;;;;;;;;;;4961569;28;20294;-63
2022/11/12 02:16:43;;;;;;;5.23;4.70;;;;;;;;;;4987109;28;20195;-63
2022/11/12 02:19:12;;;;;;;6.27;5.40;;;;;;;;;;4975381;28;20690;-62
2022/11/12 02:21:40;;;;;;;5.73;5.00;;;;;;;;;;4966610;28;20227;-63
2022/11/12 02:24:11;;;;;;;5.57;4.87;;;;;;;;;;4982313;28;20200;-62
2022/11/12 02:26:41;;;;;;;7.30;5.57;;;;;;;;;;4983189;28;20286;-63
2022/11/12 02:29:08;;;;;;;5.23;4.73;;;;;;;;;;4977660;28;20211;-62
2022/11/12 02:31:35;;;;;;;5.43;4.63;;;;;;;;;;4977872;28;20716;-63
2022/11/12 02:34:03;;;;;;;5.60;4.80;;;;;;;;;;4975977;28;20299;-63
2022/11/12 02:36:31;;;;;;;6.07;5.00;;;;;;;;;;4991624;28;20263;-63
2022/11/12 02:38:58;;;;;;;5.73;4.97;;;;;;;;;;4971673;28;20218;-63
2022/11/12 02:41:25;;;;;;;7.07;5.67;;;;;;;;;;4976493;28;20623;-62
2022/11/12 02:43:53;;;;;;;12.60;7.07;;;;;;;;;;4974603;28;20817;-62
2022/11/12 02:46:20;;;;;;;14.80;7.33;;;;;;;;;;4977556;28;20457;-63
2022/11/12 02:48:47;;;;;;;15.63;7.93;;;;;;;;;;4972286;28;20207;-63
2022/11/12 02:51:15;;;;;;;11.10;6.53;;;;;;;;;;4955014;28;20775;-63
2022/11/12 02:53:42;;;;;;;6.67;5.60;;;;;;;;;;4959449;28;20208;-62
2022/11/12 02:56:09;;;;;;;6.50;5.50;;;;;;;;;;4983608;28;20214;-63
2022/11/12 02:58:38;;;;;;;6.37;5.50;;;;;;;;;;4954445;28;20828;-63
2022/11/12 03:01:05;;;;;;;6.87;4.97;;;;;;;;;;4960236;28;20235;-63
2022/11/12 03:03:33;;;;;;;5.57;4.90;;;;;;;;;;4959545;28;20219;-63
2022/11/12 03:06:00;;;;;;;5.00;4.50;;;;;;;;;;4960635;28;20208;-62
2022/11/12 03:08:28;;;;;;;4.53;4.13;;;;;;;;;;4952542;28;20261;-61
2022/11/12 03:10:55;;;;;;;5.73;5.07;;;;;;;;;;4974510;28;20891;-63
2022/11/12 03:13:23;;;;;;;4.30;3.90;;;;;;;;;;4983721;28;20620;-63
2022/11/12 03:15:50;;;;;;;4.67;4.20;;;;;;;;;;4969421;28;20675;-62
2022/11/12 03:18:17;;;;;;;5.37;4.70;;;;;;;;;;4962345;28;21038;-62
2022/11/12 03:20:45;;;;;;;5.20;4.70;;;;;;;;;;4963248;28;20254;-63
2022/11/12 03:23:13;;;;;;;5.97;4.37;;;;;;;;;;4982663;28;20214;-63
2022/11/12 03:25:40;;;;;;;6.90;4.70;;;;;;;;;;4964733;28;20306;-63
2022/11/12 03:28:09;;;;;;;5.13;4.63;;;;;;;;;;4962636;28;20212;-61
2022/11/12 03:30:40;;;;;;;5.30;4.80;;;;;;;;;;4963697;28;20245;-61
2022/11/12 03:33:10;;;;;;;5.17;4.67;;;;;;;;;;4969372;28;20299;-61
2022/11/12 03:35:38;;;;;;;5.30;4.80;;;;;;;;;;4974857;28;20221;-63
2022/11/12 03:38:05;;;;;;;4.70;4.27;;;;;;;;;;4976322;28;20343;-61
2022/11/12 03:40:33;;;;;;;5.13;4.57;;;;;;;;;;4979450;28;20402;-63
2022/11/12 03:43:01;;;;;;;5.03;4.50;;;;;;;;;;4965508;28;20227;-61
2022/11/12 03:45:28;;;;;;;5.40;4.67;;;;;;;;;;4964107;28;20754;-63
2022/11/12 03:47:59;;;;;;;5.73;4.43;;;;;;;;;;4965480;28;20209;-61
2022/11/12 03:50:27;;;;;;;5.10;4.60;;;;;;;;;;4972044;28;20317;-63
2022/11/12 03:52:59;;;;;;;6.20;4.83;;;;;;;;;;4961799;28;20231;-63
2022/11/12 03:55:27;;;;;;;4.10;3.73;;;;;;;;;;4978888;28;20215;-61
2022/11/12 03:57:55;;;;;;;5.00;4.50;;;;;;;;;;4963120;28;20207;-63
2022/11/12 04:00:23;;;;;;;4.53;4.13;;;;;;;;;;4966676;28;20423;-62
2022/11/12 04:02:51;;;;;;;5.00;4.30;;;;;;;;;;4964317;28;20214;-62
2022/11/12 04:10:52;;;;;;;4.40;3.50;;;;;;;;;;4984593;28;20250;-63
2022/11/12 04:13:26;;;;;;;3.50;3.20;;;;;;;;;;4983725;28;21047;-63
2022/11/12 04:21:50;;;;;;;3.00;2.80;;;;;;;;;;4989776;28;20740;-64
2022/11/12 04:27:05;;;;;;;3.50;3.20;;;;;;;;;;4992479;28;20207;-62
2022/11/12 04:32:19;;;;;;;2.40;2.20;;;;;;;;;;5003610;28;20310;-63
2022/11/12 04:34:46;;;;;;;2.73;2.53;;;;;;;;;;4970281;28;20207;-63
2022/11/12 04:37:14;;;;;;;2.60;2.40;;;;;;;;;;4986968;28;20595;-63
2022/11/12 04:39:47;;;;;;;2.47;2.37;;;;;;;;;;4986165;28;20299;-62
2022/11/12 04:45:01;;;;;;;3.63;3.33;;;;;;;;;;5003218;28;20251;-63
2022/11/12 04:47:29;;;;;;;3.80;3.40;;;;;;;;;;5000708;28;20239;-63
2022/11/12 04:49:57;;;;;;;3.57;3.27;;;;;;;;;;4977019;28;20299;-62
2022/11/12 04:52:25;;;;;;;3.50;3.20;;;;;;;;;;4969855;28;20224;-64
2022/11/12 04:54:53;;;;;;;3.00;2.80;;;;;;;;;;4964496;28;20432;-63
2022/11/12 04:57:20;;;;;;;3.30;3.10;;;;;;;;;;4967084;28;20208;-63
2022/11/12 04:59:48;;;;;;;2.90;2.70;;;;;;;;;;4968425;28;20204;-63
2022/11/12 05:02:16;;;;;;;2.87;2.67;;;;;;;;;;4969381;28;20233;-62
2022/11/12 05:04:44;;;;;;;2.70;2.50;;;;;;;;;;4981137;28;23282;-63
2022/11/12 05:07:11;;;;;;;2.90;2.70;;;;;;;;;;4968934;28;21394;-61
2022/11/12 05:09:39;;;;;;;4.57;2.80;;;;;;;;;;4962474;28;20207;-62
2022/11/12 05:12:06;;;;;;;2.90;2.70;;;;;;;;;;4966467;28;20232;-61
2022/11/12 05:14:33;;;;;;;2.80;2.60;;;;;;;;;;4965624;28;20215;-61
2022/11/12 05:17:01;;;;;;;2.77;2.57;;;;;;;;;;4966488;28;20208;-63
2022/11/12 05:19:28;;;;;;;2.90;2.70;;;;;;;;;;4968229;28;20902;-62
2022/11/12 05:22:05;;;;;;;3.07;2.87;;;;;;;;;;4966610;28;20236;-64
2022/11/12 05:24:37;;;;;;;2.57;2.37;;;;;;;;;;4964339;28;20301;-61
2022/11/12 05:27:17;;;;;;;2.90;2.70;;;;;;;;;;4974189;28;20210;-63
2022/11/12 05:29:44;;;;;;;3.13;2.90;;;;;;;;;;4977444;28;20214;-61
2022/11/12 05:32:13;;;;;;;3.00;2.80;;;;;;;;;;4964767;28;20257;-63
2022/11/12 05:34:40;;;;;;;3.13;2.87;;;;;;;;;;4961487;28;20204;-61
2022/11/12 05:37:08;;;;;;;3.13;2.83;;;;;;;;;;4967257;28;20355;-64
2022/11/12 05:39:36;;;;;;;3.50;3.20;;;;;;;;;;4963604;28;20626;-61
2022/11/12 05:42:03;;;;;;;5.20;4.70;;;;;;;;;;4963850;28;20693;-63
2022/11/12 05:44:40;;;;;;;10.13;6.73;;;;;;;;;;4967199;28;20629;-61
2022/11/12 05:47:07;;;;;;;11.17;8.43;;;;;;;;;;4964443;28;20215;-60
2022/11/12 05:49:35;;;;;;;13.53;8.90;;;;;;;;;;4968527;28;20255;-62
2022/11/12 05:52:02;;;;;;;8.50;5.97;;;;;;;;;;4963703;28;20289;-63
2022/11/12 05:54:29;;;;;;;5.57;4.20;;;;;;;;;;4958826;28;20204;-63
2022/11/12 05:56:56;;;;;;;4.13;3.73;;;;;;;;;;4954958;28;20207;-63
2022/11/12 05:59:24;;;;;;;3.70;3.40;;;;;;;;;;4961527;28;20207;-61
2022/11/12 06:01:51;;;;;;;3.40;3.17;;;;;;;;;;4978882;28;21003;-63
2022/11/12 06:04:19;;;;;;;3.10;2.90;;;;;;;;;;4952701;28;20215;-63
2022/11/12 06:06:47;;;;;;;3.67;3.37;;;;;;;;;;4959729;28;20939;-60
2022/11/12 06:09:14;;;;;;;11.93;7.73;;;;;;;;;;4960423;28;20267;-62
2022/11/12 06:11:41;;;;;;;5.50;4.70;;;;;;;;;;4958322;28;20239;-61
2022/11/12 06:14:09;;;;;;;4.53;4.00;;;;;;;;;;4965715;28;20211;-61
2022/11/12 06:16:36;;;;;;;4.20;3.80;;;;;;;;;;4965537;28;20717;-61
2022/11/12 06:19:04;;;;;;;5.63;4.27;;;;;;;;;;4965035;28;20223;-63
2022/11/12 06:21:33;;;;;;;5.10;4.43;;;;;;;;;;4963536;28;20224;-63
2022/11/12 06:24:00;;;;;;;5.30;4.80;;;;;;;;;;4967212;28;20208;-63
2022/11/12 06:26:29;;;;;;;4.07;3.67;;;;;;;;;;4965087;28;20303;-62
2022/11/12 06:28:56;;;;;;;3.10;2.90;;;;;;;;;;4977727;28;20214;-63
2022/11/12 06:31:24;;;;;;;2.67;2.47;;;;;;;;;;4972704;28;20231;-63
2022/11/12 06:33:51;;;;;;;3.10;2.70;;;;;;;;;;4960459;28;20208;-61
2022/11/12 06:36:19;;;;;;;3.50;3.20;;;;;;;;;;4961260;28;20230;-62
2022/11/12 06:38:48;;;;;;;3.43;3.13;;;;;;;;;;4974997;28;20318;-62
2022/11/12 06:41:15;;;;;;;4.00;3.70;;;;;;;;;;4980725;28;20223;-61
2022/11/12 06:43:43;;;;;;;4.83;4.43;;;;;;;;;;4984900;28;20924;-63
2022/11/12 06:46:14;;;;;;;3.80;3.40;;;;;;;;;;4984932;28;20215;-63
2022/11/12 06:48:42;;;;;;;3.70;2.93;;;;;;;;;;4962817;28;20234;-63
2022/11/12 06:51:11;;;;;;;3.17;2.70;;;;;;;;;;4980479;28;21167;-61
2022/11/12 06:53:38;;;;;;;2.67;2.47;;;;;;;;;;4962008;28;20303;-63
2022/11/12 06:56:07;;;;;;;2.67;2.47;;;;;;;;;;4965952;28;20196;-63
2022/11/12 06:58:35;;;;;;;3.50;3.20;;;;;;;;;;4967490;28;20218;-61
2022/11/12 07:01:06;;;;;;;4.03;3.70;;;;;;;;;;4967206;28;21500;-60
2022/11/12 07:03:39;;;;;;;5.93;4.10;;;;;;;;;;4965984;28;20230;-62
2022/11/12 07:06:07;;;;;;;4.53;4.00;;;;;;;;;;4971044;28;20716;-61
2022/11/12 07:08:35;;;;;;;6.27;3.93;;;;;;;;;;4969607;28;20235;-62
2022/11/12 07:11:02;;;;;;;4.33;3.63;;;;;;;;;;4963898;28;20608;-62
2022/11/12 07:13:31;;;;;;;4.20;3.80;;;;;;;;;;4969213;28;20306;-63
2022/11/12 07:15:59;;;;;;;6.43;4.13;;;;;;;;;;4967537;28;20721;-64
2022/11/12 07:18:27;;;;;;;3.70;3.40;;;;;;;;;;4966005;28;20218;-62
2022/11/12 07:21:02;;;;;;;3.60;3.30;;;;;;;;;;4961691;28;20262;-63
2022/11/12 07:23:31;;;;;;;3.60;3.30;;;;;;;;;;4969667;28;20285;-63
2022/11/12 07:26:03;;;;;;;3.17;2.97;;;;;;;;;;4965030;28;20893;-63
2022/11/12 07:28:30;;;;;;;3.57;3.27;;;;;;;;;;4966051;28;20204;-63
2022/11/12 07:31:00;;;;;;;3.23;2.97;;;;;;;;;;4957245;28;20325;-63
2022/11/12 07:33:28;;;;;;;3.80;3.50;;;;;;;;;;4959724;28;20208;-63
2022/11/12 07:35:57;;;;;;;5.47;4.97;;;;;;;;;;4959894;28;20282;-63
2022/11/12 07:38:25;;;;;;;13.70;8.40;;;;;;;;;;4955489;28;20402;-63
2022/11/12 07:40:58;;;;;;;14.10;9.50;;;;;;;;;;4961185;28;20231;-61
2022/11/12 07:43:25;;;;;;;13.03;10.20;;;;;;;;;;4965399;28;20290;-62
2022/11/12 07:45:52;;;;;;;17.87;14.63;;;;;;;;;;4967695;28;20788;-61
2022/11/12 07:48:20;;;;;;;11.83;9.30;;;;;;;;;;4960979;28;20231;-63
2022/11/12 07:50:47;;;;;;;8.97;6.20;;;;;;;;;;4958440;28;21209;-63
2022/11/12 07:53:14;;;;;;;3.67;3.20;;;;;;;;;;4963996;28;20212;-62
2022/11/12 07:55:42;;;;;;;3.10;2.80;;;;;;;;;;4965776;28;20199;-62
2022/11/12 07:58:09;;;;;;;2.60;2.40;;;;;;;;;;4964816;28;20220;-62
2022/11/12 08:00:37;;;;;;;2.60;2.40;;;;;;;;;;4962304;28;20845;-62
2022/11/12 08:03:05;;;;;;;2.57;2.37;;;;;;;;;;4963670;28;20347;-63
2022/11/12 08:05:33;;;;;;;2.77;2.57;;;;;;;;;;4970685;28;20673;-64
2022/11/12 08:08:00;;;;;;;2.27;2.17;;;;;;;;;;4963400;28;20331;-63
2022/11/12 08:10:28;;;;;;;3.43;3.13;;;;;;;;;;4966307;28;20624;-61
2022/11/12 08:12:56;;;;;;;3.37;3.07;;;;;;;;;;4965699;28;20212;-63
2022/11/12 08:15:23;;;;;;;2.90;2.70;;;;;;;;;;4984510;28;20283;-63
2022/11/12 08:17:50;;;;;;;2.90;2.70;;;;;;;;;;4991449;28;20215;-63
2022/11/12 08:20:18;;;;;;;3.33;3.13;;;;;;;;;;4960902;28;20251;-64
2022/11/12 08:22:45;;;;;;;2.50;2.30;;;;;;;;;;4954568;28;20667;-63
2022/11/12 08:25:17;;;;;;;2.33;2.23;;;;;;;;;;4986508;28;20355;-63
2022/11/12 08:27:45;;;;;;;2.60;2.40;;;;;;;;;;4985447;28;20598;-63
2022/11/12 08:30:12;;;;;;;2.47;2.30;;;;;;;;;;4985768;28;20670;-63
2022/11/12 08:32:40;;;;;;;3.37;3.07;;;;;;;;;;4985649;28;20306;-63
2022/11/12 08:35:07;;;;;;;3.27;2.90;;;;;;;;;;4960626;28;20211;-63
2022/11/12 08:37:34;;;;;;;2.77;2.57;;;;;;;;;;4963463;28;20199;-63
2022/11/12 08:40:02;;;;;;;3.53;3.23;;;;;;;;;;4986910;28;20235;-62
2022/11/12 08:42:29;;;;;;;3.43;3.13;;;;;;;;;;4969059;28;20661;-64
2022/11/12 08:44:56;;;;;;;3.63;3.33;;;;;;;;;;4963250;28;20294;-62
2022/11/12 08:47:24;;;;;;;3.60;3.30;;;;;;;;;;4959249;28;20211;-62
2022/11/12 08:49:51;;;;;;;3.73;3.43;;;;;;;;;;4947088;28;20215;-62
2022/11/12 08:52:18;;;;;;;5.07;4.40;;;;;;;;;;4962492;28;22777;-62
2022/11/12 08:54:46;;;;;;;5.13;4.10;;;;;;;;;;4943843;28;20218;-64
2022/11/12 08:57:13;;;;;;;5.90;5.03;;;;;;;;;;4956693;28;20293;-64
2022/11/12 08:59:41;;;;;;;4.87;4.43;;;;;;;;;;4962634;28;20351;-63
2022/11/12 09:02:12;;;;;;;6.03;5.43;;;;;;;;;;4955153;28;20301;-65
2022/11/12 09:04:40;;;;;;;4.63;4.13;;;;;;;;;;4948837;28;20253;-64
2022/11/12 09:07:07;;;;;;;5.60;4.20;;;;;;;;;;4958197;28;20211;-63
2022/11/12 09:09:36;;;;;;;4.27;3.87;;;;;;;;;;4949602;28;20258;-62
2022/11/12 09:12:03;;;;;;;4.10;3.67;;;;;;;;;;4948184;28;20240;-64
2022/11/12 09:14:42;;;;;;;3.63;3.33;;;;;;;;;;4968991;28;20211;-62
2022/11/12 09:17:09;;;;;;;3.83;3.53;;;;;;;;;;4957542;28;20215;-62
2022/11/12 09:19:37;;;;;;;3.83;3.47;;;;;;;;;;4948262;28;20207;-64
2022/11/12 09:22:09;;;;;;;3.73;3.40;;;;;;;;;;4959898;28;20240;-64
2022/11/12 09:24:36;;;;;;;3.73;3.43;;;;;;;;;;4942913;28;20222;-63
2022/11/12 09:27:04;;;;;;;4.50;3.80;;;;;;;;;;4949521;28;20208;-64
2022/11/12 09:29:31;;;;;;;8.57;6.33;;;;;;;;;;4954447;28;20776;-63
2022/11/12 09:31:58;;;;;;;8.60;5.77;;;;;;;;;;4976117;28;20242;-62
2022/11/12 09:34:26;;;;;;;9.73;6.50;;;;;;;;;;4965697;28;20230;-63
2022/11/12 09:36:54;;;;;;;11.37;7.13;;;;;;;;;;4953458;28;20326;-61
2022/11/12 09:39:22;;;;;;;15.77;7.53;;;;;;;;;;4982117;28;20648;-63
2022/11/12 09:41:49;;;;;;;9.93;7.07;;;;;;;;;;4984347;28;20339;-63
2022/11/12 09:44:19;;;;;;;11.23;7.47;;;;;;;;;;4972493;28;20311;-63
2022/11/12 09:47:15;;;;;;;6.80;6.10;;;;;;;;;;4971323;28;20598;-62
2022/11/12 09:49:49;;;;;;;6.33;5.67;;;;;;;;;;4964414;28;21915;-64
2022/11/12 09:52:18;;;;;;;6.70;5.60;;;;;;;;;;4960908;28;20705;-64
2022/11/12 09:54:49;;;;;;;4.17;3.87;;;;;;;;;;4960105;28;20651;-62
2022/11/12 09:57:17;;;;;;;3.90;3.60;;;;;;;;;;4959505;28;20199;-63
2022/11/12 09:59:44;;;;;;;4.30;3.90;;;;;;;;;;4970928;28;20207;-63
2022/11/12 10:02:29;;;;;;;4.23;3.83;;;;;;;;;;4958039;28;20242;-63
2022/11/12 10:05:03;;;;;;;4.50;4.00;;;;;;;;;;4977946;28;20342;-63
2022/11/12 10:07:33;;;;;;;3.80;3.50;;;;;;;;;;4980335;28;20203;-64
2022/11/12 10:10:14;;;;;;;3.63;3.33;;;;;;;;;;4974199;28;20287;-62
2022/11/12 10:13:01;;;;;;;4.03;3.00;;;;;;;;;;4973300;28;20285;-63
2022/11/12 10:18:23;;;;;;;4.40;3.60;;;;;;;;;;4997698;28;20199;-64
2022/11/12 10:20:55;;;;;;;4.10;3.70;;;;;;;;;;4985421;28;20232;-63
2022/11/12 10:23:32;;;;;;;4.27;3.43;;;;;;;;;;4982531;28;20291;-64
2022/11/12 10:26:01;;;;;;;3.57;2.93;;;;;;;;;;4987879;28;20254;-62
2022/11/12 10:28:32;;;;;;;3.50;3.20;;;;;;;;;;4977245;28;20211;-64
2022/11/12 10:31:12;;;;;;;3.20;2.90;;;;;;;;;;4980850;28;20314;-64
2022/11/12 10:33:39;;;;;;;4.07;3.67;;;;;;;;;;4971897;28;20727;-64
2022/11/12 10:36:26;;;;;;;4.87;4.13;;;;;;;;;;4973988;28;20674;-64
2022/11/12 10:38:54;;;;;;;4.30;4.00;;;;;;;;;;4992009;28;20680;-63
2022/11/12 10:41:26;;;;;;;3.67;3.37;;;;;;;;;;4991874;28;20575;-63
2022/11/12 10:43:55;;;;;;;3.43;3.13;;;;;;;;;;4981283;28;20334;-64
2022/11/12 10:46:24;;;;;;;3.97;3.00;;;;;;;;;;4974156;28;20221;-62
2022/11/12 10:48:58;;;;;;;3.20;2.90;;;;;;;;;;4972531;28;20210;-62
2022/11/12 10:51:28;;;;;;;2.63;2.37;;;;;;;;;;4967926;28;22010;-64
2022/11/12 10:53:55;;;;;;;2.80;2.60;;;;;;;;;;4969006;28;20204;-63
2022/11/12 10:56:24;;;;;;;4.23;3.20;;;;;;;;;;4989857;28;20874;-64
2022/11/12 10:59:13;;;;;;;3.40;3.10;;;;;;;;;;4978788;28;20299;-63
2022/11/12 11:01:41;;;;;;;2.90;2.70;;;;;;;;;;4977446;28;20303;-63
2022/11/12 11:04:16;;;;;;;2.60;2.40;;;;;;;;;;4977432;28;20203;-63
2022/11/12 11:06:44;;;;;;;3.07;2.87;;;;;;;;;;4978406;28;20243;-64
2022/11/12 11:09:11;;;;;;;3.33;2.73;;;;;;;;;;4971530;28;20212;-63
2022/11/12 11:11:47;;;;;;;4.13;2.30;;;;;;;;;;4980109;28;20338;-64
2022/11/12 11:14:24;;;;;;;3.10;2.83;;;;;;;;;;4987893;28;20204;-64
2022/11/12 11:16:52;;;;;;;3.87;3.40;;;;;;;;;;4981386;28;20227;-63
2022/11/12 11:19:20;;;;;;;2.83;2.63;;;;;;;;;;4999318;28;20262;-64
2022/11/12 11:21:50;;;;;;;4.63;2.77;;;;;;;;;;4993823;28;20358;-64
2022/11/12 11:24:27;;;;;;;3.63;2.83;;;;;;;;;;4974446;28;20646;-63
2022/11/12 11:27:13;;;;;;;4.00;3.60;;;;;;;;;;4971621;28;20221;-63
2022/11/12 11:29:40;;;;;;;7.25;3.55;;;;;;;;;;4984709;28;20215;-63
2022/11/12 11:32:08;;;;;;;3.63;3.30;;;;;;;;;;4974821;28;20314;-64
2022/11/12 11:34:48;;;;;;;5.72;3.60;;;;;;;;;;4977135;28;20203;-64
2022/11/12 11:37:25;;;;;;;4.03;3.25;;;;;;;;;;4980266;28;20227;-64
2022/11/12 11:39:58;;;;;;;3.10;2.90;;;;;;;;;;4976421;28;20294;-64
2022/11/12 11:42:25;;;;;;;3.72;3.28;;;;;;;;;;4994069;28;20223;-64
2022/11/12 11:44:56;;;;;;;4.22;3.28;;;;;;;;;;4973972;28;20335;-64
2022/11/12 11:47:36;;;;;;;3.72;3.42;;;;;;;;;;4995401;28;20203;-64
2022/11/12 11:50:29;;;;;;;3.70;2.75;;;;;;;;;;4975480;28;20306;-64
2022/11/12 11:53:08;;;;;;;2.67;2.47;;;;;;;;;;4966087;28;20242;-64
2022/11/12 11:55:42;;;;;;;3.30;2.50;;;;;;;;;;4969053;28;20214;-64
2022/11/12 11:58:20;;;;;;;2.90;2.70;;;;;;;;;;4977803;28;20211;-63
2022/11/12 12:00:47;;;;;;;10.15;9.15;;;;;;;;;;4979592;28;20321;-63
2022/11/12 12:03:19;;;;;;;4.28;2.85;;;;;;;;;;4969622;28;20277;-64
2022/11/12 12:05:57;;;;;;;3.00;2.80;;;;;;;;;;4968512;28;20216;-65
2022/11/12 12:08:35;;;;;;;3.20;2.75;;;;;;;;;;4969615;28;20235;-64
2022/11/12 12:11:10;;;;;;;2.90;2.22;;;;;;;;;;4953263;28;20230;-65
2022/11/12 12:13:46;;;;;;;2.30;2.20;;;;;;;;;;4957389;28;20289;-64
2022/11/12 12:16:32;;;;;;;2.30;2.13;;;;;;;;;;4958896;28;20211;-63
2022/11/12 12:19:07;;;;;;;2.65;1.80;;;;;;;;;;4942706;28;22281;-65
2022/11/12 12:21:37;;;;;;;1.90;1.80;;;;;;;;;;4978768;28;20219;-63
2022/11/12 12:24:17;;;;;;;3.65;2.13;;;;;;;;;;4943867;28;20212;-64
2022/11/12 12:27:03;;;;;;;4.13;3.28;;;;;;;;;;4951755;28;20216;-65
2022/11/12 12:29:40;;;;;;;5.72;3.85;;;;;;;;;;4949814;28;20321;-64
2022/11/12 12:32:13;;;;;;;2.87;2.67;;;;;;;;;;4949074;28;20227;-64
2022/11/12 12:34:42;;;;;;;2.42;2.22;;;;;;;;;;4954249;28;20222;-63
2022/11/12 12:37:10;;;;;;;3.30;2.17;;;;;;;;;;4958679;28;21348;-64
2022/11/12 12:39:43;;;;;;;2.50;2.35;;;;;;;;;;4960530;28;20226;-63
2022/11/12 12:42:30;;;;;;;2.20;2.00;;;;;;;;;;4965503;28;20239;-65
2022/11/12 12:44:59;;;;;;;2.60;2.38;;;;;;;;;;4960254;28;20221;-63
2022/11/12 12:47:53;;;;;;;3.25;2.70;;;;;;;;;;4943497;28;21999;-64
2022/11/12 12:50:21;;;;;;;2.83;2.58;;;;;;;;;;4941537;28;20298;-63
2022/11/12 12:53:00;;;;;;;4.38;2.50;;;;;;;;;;4952652;28;20323;-64
2022/11/12 12:55:39;;;;;;;4.10;2.40;;;;;;;;;;4953884;28;21374;-64
2022/11/12 12:58:15;;;;;;;3.22;2.80;;;;;;;;;;4961220;28;20215;-63
2022/11/12 13:00:46;;;;;;;2.78;2.58;;;;;;;;;;4969780;28;20314;-62
2022/11/12 13:03:34;;;;;;;2.85;2.65;;;;;;;;;;4968759;28;20215;-64
2022/11/12 13:06:08;;;;;;;2.55;2.35;;;;;;;;;;4979384;28;20216;-64
2022/11/12 13:08:36;;;;;;;2.38;2.20;;;;;;;;;;4967730;28;20290;-64
2022/11/12 13:11:03;;;;;;;3.05;2.80;;;;;;;;;;4966788;28;20340;-64
2022/11/12 13:13:32;;;;;;;2.55;2.45;;;;;;;;;;4967838;28;20238;-63
2022/11/12 13:16:00;;;;;;;3.40;3.10;;;;;;;;;;4975114;28;20291;-64
2022/11/12 13:18:39;;;;;;;3.00;2.80;;;;;;;;;;4976347;28;20271;-64
2022/11/12 13:21:10;;;;;;;3.03;2.75;;;;;;;;;;4988768;28;20227;-65
2022/11/12 13:24:05;;;;;;;3.20;3.00;;;;;;;;;;4972601;28;20211;-63
2022/11/12 13:26:51;;;;;;;3.33;3.03;;;;;;;;;;4987673;28;20208;-63
2022/11/12 13:29:21;;;;;;;3.23;3.00;;;;;;;;;;4977080;28;20298;-62
2022/11/12 13:31:48;;;;;;;4.17;3.30;;;;;;;;;;4975136;28;20349;-64
2022/11/12 13:34:24;;;;;;;4.33;3.93;;;;;;;;;;4971175;28;20220;-64
2022/11/12 13:37:00;;;;;;;6.07;5.57;;;;;;;;;;4974525;28;20264;-64
2022/11/12 13:39:27;;;;;;;4.27;3.93;;;;;;;;;;4975581;28;22158;-64
2022/11/12 13:44:46;;;;;;;4.50;4.10;;;;;;;;;;4990690;28;20821;-64
2022/11/12 13:47:23;;;;;;;3.90;3.60;;;;;;;;;;4966979;28;20950;-62
2022/11/12 13:49:50;;;;;;;3.80;3.37;;;;;;;;;;4972453;28;20258;-64
2022/11/12 13:52:18;;;;;;;4.20;3.80;;;;;;;;;;4970908;28;20344;-63
2022/11/12 13:54:46;;;;;;;4.90;3.33;;;;;;;;;;4977449;28;20199;-63
2022/11/12 13:57:19;;;;;;;3.80;3.27;;;;;;;;;;4984014;28;20203;-62
2022/11/12 13:59:47;;;;;;;3.70;3.40;;;;;;;;;;4980032;28;20294;-63
2022/11/12 14:02:17;;;;;;;3.80;3.40;;;;;;;;;;4974156;28;20273;-65
2022/11/12 14:04:44;;;;;;;5.20;4.10;;;;;;;;;;4971212;28;20333;-63
2022/11/12 14:07:27;;;;;;;5.20;4.10;;;;;;;;;;4966171;28;20642;-64
2022/11/12 14:09:54;;;;;;;4.40;4.00;;;;;;;;;;4967846;28;20662;-64
2022/11/12 14:12:25;;;;;;;4.70;4.30;;;;;;;;;;4991402;28;20238;-62
2022/11/12 14:15:07;;;;;;;4.97;4.57;;;;;;;;;;4989685;28;20302;-64
2022/11/12 14:17:53;;;;;;;4.57;4.17;;;;;;;;;;4982586;28;20254;-65
2022/11/12 14:20:35;;;;;;;4.57;3.97;;;;;;;;;;4980269;28;20338;-63
2022/11/12 14:23:13;;;;;;;4.10;3.80;;;;;;;;;;4980196;28;20221;-64
2022/11/12 14:25:54;;;;;;;4.10;3.80;;;;;;;;;;4995938;28;20211;-63
2022/11/12 14:28:42;;;;;;;6.20;5.60;;;;;;;;;;4974058;28;20288;-64
2022/11/12 14:31:13;;;;;;;10.60;7.83;;;;;;;;;;4976670;28;20700;-64
2022/11/12 14:33:41;;;;;;;12.37;9.80;;;;;;;;;;4980595;28;20258;-64
2022/11/12 14:36:13;;;;;;;7.57;5.67;;;;;;;;;;4982139;28;20475;-63
2022/11/12 14:38:46;;;;;;;9.93;7.30;;;;;;;;;;4976258;28;20305;-64
2022/11/12 14:41:19;;;;;;;4.30;3.93;;;;;;;;;;4982868;28;20310;-64
2022/11/12 14:43:48;;;;;;;4.90;4.50;;;;;;;;;;4977581;28;20203;-64
2022/11/12 14:46:31;;;;;;;3.87;3.57;;;;;;;;;;4979203;28;20584;-64
2022/11/12 14:48:58;;;;;;;4.00;3.70;;;;;;;;;;4981540;28;20290;-64
2022/11/12 14:51:27;;;;;;;4.10;3.80;;;;;;;;;;4982842;28;20707;-64
2022/11/12 14:54:09;;;;;;;4.40;4.00;;;;;;;;;;4988221;28;20291;-64
2022/11/12 14:56:40;;;;;;;4.47;4.17;;;;;;;;;;4997412;28;20207;-64
2022/11/12 14:59:11;;;;;;;3.93;3.60;;;;;;;;;;4974494;28;20389;-63
2022/11/12 15:01:39;;;;;;;3.97;3.67;;;;;;;;;;4966981;28;20224;-62
2022/11/12 15:04:26;;;;;;;4.60;4.30;;;;;;;;;;4961443;28;20219;-64
2022/11/12 15:06:54;;;;;;;4.70;4.10;;;;;;;;;;4952414;28;20211;-63
2022/11/12 15:09:36;;;;;;;4.37;4.00;;;;;;;;;;4966457;28;20215;-64
2022/11/12 15:12:05;;;;;;;5.13;4.73;;;;;;;;;;4987768;28;20595;-63
2022/11/12 15:14:33;;;;;;;5.30;4.80;;;;;;;;;;4962933;28;20235;-63
2022/11/12 15:17:00;;;;;;;7.47;5.20;;;;;;;;;;4971606;28;20203;-64
2022/11/12 15:19:28;;;;;;;8.00;7.23;;;;;;;;;;4972508;28;20231;-63
2022/11/12 15:21:57;;;;;;;5.70;5.20;;;;;;;;;;4987653;28;20869;-64
2022/11/12 15:24:28;;;;;;;16.77;13.30;;;;;;;;;;4977908;28;20211;-63
2022/11/12 15:26:57;;;;;;;10.77;9.37;;;;;;;;;;4980252;28;20266;-63